Timber Trails, Louisiana
Current Conditions -  °F | °C
As of 10:53 AM on Thursday 23 Oct 2014 (Local Time) from KAEX Reporting Station
Clear Clear  
Wind Chill: 64°   Ceiling: Unl
Heat Index: 64°   Visibility: 10mi
Dew Point: 49°   Wind: 6mph
Humidity: 58%   Direction: 30°NNE
Pressure: 30.15"   Gusts: NA
Location:  31.2655°N, 92.4705°W
Report Text: KAEX 231553Z 03005KT 10SM CLR 18/09 A3015 RMK AO2 SLP213 T01780094
Loading
Personal Weather Stations






























Interactive Weather Map
Tropical Storm Tracking
New forecast layout! Learn more

10-Day Weather Forecast

Advertisements
Track Severe Weather on mobile